createdAt,value
2016-08-15T00:00:47.178Z,61.54
2016-08-15T00:01:49.911Z,61.55
2016-08-15T00:02:38.340Z,61.57
2016-08-15T00:03:33.301Z,61.56
2016-08-15T00:04:48.481Z,61.56
2016-08-15T00:05:44.089Z,61.57
2016-08-15T00:06:49.756Z,61.57
2016-08-15T00:07:51.078Z,61.58
2016-08-15T00:08:37.169Z,61.58
2016-08-15T00:09:44.471Z,61.58
2016-08-15T00:10:49.049Z,61.57
2016-08-15T00:11:38.393Z,61.58
2016-08-15T00:12:38.777Z,61.58
2016-08-15T00:13:49.246Z,61.59
2016-08-15T00:14:40.383Z,61.58
2016-08-15T00:15:49.642Z,61.57
2016-08-15T00:16:39.638Z,61.58
2016-08-15T00:17:44.963Z,61.58
2016-08-15T00:18:31.863Z,61.58
2016-08-15T00:19:49.022Z,61.57
2016-08-15T00:20:51.194Z,61.58
2016-08-15T00:21:44.839Z,61.57
2016-08-15T00:22:44.574Z,61.58
2016-08-15T00:23:45.376Z,61.61
2016-08-15T00:24:40.534Z,61.60
2016-08-15T00:25:47.869Z,61.60
2016-08-15T00:26:46.067Z,61.59
2016-08-15T00:27:48.742Z,61.60
2016-08-15T00:28:32.727Z,61.61
2016-08-15T00:29:41.358Z,61.60
2016-08-15T00:30:45.043Z,61.61
2016-08-15T00:31:47.038Z,61.60
2016-08-15T00:32:38.238Z,61.60
2016-08-15T00:33:47.428Z,61.61
2016-08-15T00:34:44.539Z,61.60
2016-08-15T00:35:54.440Z,61.62
2016-08-15T00:36:47.882Z,61.61
2016-08-15T00:37:44.399Z,61.61
2016-08-15T00:38:42.043Z,61.62
2016-08-15T00:39:45.095Z,61.62
2016-08-15T00:40:38.813Z,61.62
2016-08-15T00:41:49.656Z,61.62
2016-08-15T00:42:47.429Z,61.64
2016-08-15T00:43:56.972Z,61.62
2016-08-15T00:44:55.286Z,61.63
2016-08-15T00:45:24.610Z,61.62
2016-08-15T00:46:15.420Z,61.64
2016-08-15T00:47:44.320Z,61.63
2016-08-15T00:48:46.394Z,61.63
2016-08-15T00:49:33.825Z,61.62
2016-08-15T00:50:52.437Z,60.60
2016-08-15T00:51:34.466Z,60.39
2016-08-15T00:52:44.854Z,61.28
2016-08-15T00:53:37.926Z,61.28
2016-08-15T00:55:00.718Z,60.55
2016-08-15T00:55:44.579Z,60.37
2016-08-15T00:56:36.884Z,60.27
2016-08-15T00:57:47.857Z,60.64
2016-08-15T00:58:33.631Z,61.17
2016-08-15T00:59:44.773Z,61.39
2016-08-15T01:00:57.870Z,61.50
2016-08-15T01:01:47.320Z,61.54
2016-08-15T01:02:55.470Z,61.56
2016-08-15T01:03:51.170Z,61.58
2016-08-15T01:04:54.188Z,61.59
2016-08-15T01:05:44.347Z,61.60
2016-08-15T01:06:39.205Z,61.64
2016-08-15T01:07:43.352Z,61.62
2016-08-15T01:08:49.017Z,61.63
2016-08-15T01:09:39.028Z,61.62
2016-08-15T01:10:45.802Z,61.62
2016-08-15T01:11:50.972Z,61.62
2016-08-15T01:12:52.517Z,61.62
2016-08-15T01:13:50.314Z,61.63
2016-08-15T01:14:44.584Z,61.65
2016-08-15T01:15:46.253Z,61.65
2016-08-15T01:16:43.599Z,61.47
2016-08-15T01:17:44.575Z,60.64
2016-08-15T01:18:57.338Z,60.43
2016-08-15T01:19:36.504Z,60.50
2016-08-15T01:20:47.818Z,61.26
2016-08-15T01:21:49.430Z,61.44
2016-08-15T01:22:44.492Z,61.52
2016-08-15T01:23:44.904Z,61.58
2016-08-15T01:24:34.809Z,61.59
2016-08-15T01:25:48.970Z,61.61
2016-08-15T01:26:35.674Z,61.63
2016-08-15T01:27:46.436Z,61.62
2016-08-15T01:28:38.167Z,61.64
2016-08-15T01:29:39.360Z,61.66
2016-08-15T01:30:47.002Z,61.66
2016-08-15T01:31:47.000Z,61.66
2016-08-15T01:32:46.131Z,61.67
2016-08-15T01:33:39.040Z,61.69
2016-08-15T01:34:40.454Z,61.68
2016-08-15T01:35:44.814Z,61.68
2016-08-15T01:36:52.279Z,61.69
2016-08-15T01:37:48.060Z,61.69
2016-08-15T01:38:42.822Z,61.68
2016-08-15T01:39:55.485Z,61.70
2016-08-15T01:41:19.265Z,61.69
2016-08-15T01:41:48.606Z,61.69
2016-08-15T01:42:45.861Z,61.69
2016-08-15T01:43:45.160Z,61.52
2016-08-15T01:44:50.357Z,60.69
2016-08-15T01:45:43.061Z,60.89
2016-08-15T01:46:44.503Z,61.39
2016-08-15T01:47:40.073Z,61.54
2016-08-15T01:48:50.040Z,61.44
2016-08-15T01:49:47.345Z,60.64
2016-08-15T01:50:42.656Z,60.46
2016-08-15T01:51:42.844Z,60.75
2016-08-15T01:52:48.489Z,61.31
2016-08-15T01:53:45.013Z,61.50
2016-08-15T01:54:44.473Z,61.57
2016-08-15T01:55:54.793Z,61.62
2016-08-15T01:56:55.815Z,61.64
2016-08-15T01:57:43.336Z,61.65
2016-08-15T01:58:43.867Z,61.66
2016-08-15T01:59:32.127Z,61.69
2016-08-15T02:00:44.588Z,61.69
2016-08-15T02:01:44.721Z,61.70
2016-08-15T02:02:56.139Z,61.70
2016-08-15T02:03:42.427Z,61.72
2016-08-15T02:04:43.796Z,61.71
2016-08-15T02:05:35.143Z,61.72
2016-08-15T02:06:44.789Z,61.71
2016-08-15T02:07:48.061Z,61.71
2016-08-15T02:08:39.259Z,61.72
2016-08-15T02:09:46.171Z,61.72
2016-08-15T02:10:39.814Z,61.71
2016-08-15T02:11:44.666Z,61.72
2016-08-15T02:12:50.428Z,61.71
2016-08-15T02:13:44.958Z,61.72
2016-08-15T02:14:51.392Z,61.72
2016-08-15T02:15:37.522Z,61.72
2016-08-15T02:16:50.180Z,61.73
2016-08-15T02:17:50.515Z,61.73
2016-08-15T02:18:44.021Z,61.55
2016-08-15T02:19:43.926Z,60.75
2016-08-15T02:20:54.611Z,60.50
2016-08-15T02:21:56.150Z,60.43
2016-08-15T02:22:47.382Z,60.37
2016-08-15T02:23:37.182Z,60.32
2016-08-15T02:24:31.959Z,60.30
2016-08-15T02:25:43.364Z,60.29
2016-08-15T02:26:37.489Z,60.28
2016-08-15T02:27:37.065Z,60.27
2016-08-15T02:28:50.380Z,60.26
2016-08-15T02:29:44.834Z,60.26
2016-08-15T02:30:45.154Z,60.36
2016-08-15T02:31:54.571Z,60.26
2016-08-15T02:32:51.735Z,60.66
2016-08-15T02:33:44.672Z,61.29
2016-08-15T02:34:27.456Z,61.53
2016-08-15T02:35:45.371Z,61.57
2016-08-15T02:36:41.768Z,61.64
2016-08-15T02:37:48.901Z,61.68
2016-08-15T02:38:49.800Z,61.69
2016-08-15T02:39:43.585Z,61.70
2016-08-15T02:40:52.256Z,61.70
2016-08-15T02:41:45.962Z,61.72
2016-08-15T02:43:00.382Z,61.74
2016-08-15T02:43:45.759Z,61.75
2016-08-15T02:44:50.896Z,61.75
2016-08-15T02:45:45.655Z,61.76
2016-08-15T02:46:48.011Z,61.76
2016-08-15T02:47:33.405Z,61.77
2016-08-15T02:48:38.308Z,61.78
2016-08-15T02:49:48.498Z,61.78
2016-08-15T02:50:43.790Z,61.80
2016-08-15T02:51:16.764Z,61.77
2016-08-15T02:52:51.131Z,61.78
2016-08-15T02:53:45.205Z,61.76
2016-08-15T02:54:44.578Z,61.75
2016-08-15T02:55:33.731Z,60.83
2016-08-15T02:56:38.144Z,61.55
2016-08-15T02:57:50.307Z,61.65
2016-08-15T02:58:52.973Z,61.70
2016-08-15T02:59:38.274Z,61.73
2016-08-15T03:00:54.580Z,61.76
2016-08-15T03:01:49.904Z,61.76
2016-08-15T03:02:44.543Z,61.76
2016-08-15T03:03:33.109Z,61.79
2016-08-15T03:04:43.511Z,61.76
2016-08-15T03:05:39.311Z,61.76
2016-08-15T03:06:43.786Z,61.77
2016-08-15T03:07:40.129Z,61.77
2016-08-15T03:08:39.989Z,61.78
2016-08-15T03:09:44.021Z,61.76
2016-08-15T03:10:55.131Z,61.77
2016-08-15T03:11:46.120Z,61.77
2016-08-15T03:12:43.536Z,61.76
2016-08-15T03:13:50.367Z,61.78
2016-08-15T03:14:44.391Z,61.78
2016-08-15T03:15:48.373Z,61.78
2016-08-15T03:16:46.625Z,61.77
2016-08-15T03:17:51.652Z,61.79
2016-08-15T03:18:43.503Z,61.78
2016-08-15T03:19:43.654Z,61.79
2016-08-15T03:20:32.239Z,60.76
2016-08-15T03:21:40.581Z,60.58
2016-08-15T03:22:43.575Z,60.47
2016-08-15T03:23:44.173Z,60.40
2016-08-15T03:24:39.040Z,60.37
2016-08-15T03:25:39.391Z,60.36
2016-08-15T03:26:44.792Z,60.34
2016-08-15T03:27:50.103Z,60.31
2016-08-15T03:28:51.570Z,60.32
2016-08-15T03:29:44.698Z,60.31
2016-08-15T03:30:42.658Z,60.40
2016-08-15T03:31:50.981Z,61.27
2016-08-15T03:32:39.100Z,61.47
2016-08-15T03:33:44.544Z,61.58
2016-08-15T03:34:46.088Z,61.65
2016-08-15T03:35:46.307Z,61.70
2016-08-15T03:36:50.066Z,61.70
2016-08-15T03:37:31.775Z,61.71
2016-08-15T03:38:43.263Z,61.75
2016-08-15T03:39:48.208Z,61.76
2016-08-15T03:40:43.183Z,61.77
2016-08-15T03:41:47.536Z,61.75
2016-08-15T03:42:42.778Z,61.76
2016-08-15T03:43:52.627Z,61.77
2016-08-15T03:44:14.929Z,61.79
2016-08-15T03:45:37.914Z,61.79
2016-08-15T03:46:34.397Z,61.79
2016-08-15T03:47:33.271Z,61.80
2016-08-15T03:48:37.841Z,61.79
2016-08-15T03:49:51.333Z,61.80
2016-08-15T03:50:44.246Z,61.80
2016-08-15T03:51:45.085Z,61.79
2016-08-15T03:52:54.060Z,61.79
2016-08-15T03:53:43.084Z,61.78
2016-08-15T03:54:48.139Z,61.79
2016-08-15T03:55:37.815Z,61.78
2016-08-15T03:56:44.459Z,61.78
2016-08-15T03:57:40.343Z,61.78
2016-08-15T03:58:39.993Z,61.80
2016-08-15T03:59:43.731Z,61.79
2016-08-15T04:00:44.656Z,61.80
2016-08-15T04:01:44.759Z,61.82
2016-08-15T04:02:43.831Z,61.82
2016-08-15T04:03:39.006Z,61.82
2016-08-15T04:04:54.456Z,61.80
2016-08-15T04:05:40.421Z,61.79
2016-08-15T04:06:43.580Z,61.80
2016-08-15T04:07:49.607Z,61.80
2016-08-15T04:08:44.642Z,61.80
2016-08-15T04:09:45.121Z,61.83
2016-08-15T04:10:43.925Z,61.82
2016-08-15T04:11:43.333Z,61.82
2016-08-15T04:12:43.838Z,61.84
2016-08-15T04:13:53.199Z,61.84
2016-08-15T04:14:47.426Z,61.83
2016-08-15T04:15:50.310Z,61.84
2016-08-15T04:16:45.379Z,61.83
2016-08-15T04:17:38.827Z,61.82
2016-08-15T04:18:55.461Z,61.81
2016-08-15T04:19:42.334Z,61.83
2016-08-15T04:20:50.770Z,61.84
2016-08-15T04:21:44.430Z,61.83
2016-08-15T04:22:52.262Z,61.83
2016-08-15T04:23:31.590Z,61.85
2016-08-15T04:24:45.045Z,61.86
2016-08-15T04:25:48.161Z,61.85
2016-08-15T04:26:42.659Z,61.84
2016-08-15T04:27:38.073Z,61.84
2016-08-15T04:28:43.163Z,61.84
2016-08-15T04:29:37.578Z,61.84
2016-08-15T04:30:46.599Z,61.84
2016-08-15T04:31:45.405Z,61.82
2016-08-15T04:32:49.712Z,61.83
2016-08-15T04:33:14.622Z,61.83
2016-08-15T04:34:46.104Z,61.85
2016-08-15T04:35:47.815Z,61.83
2016-08-15T04:36:48.868Z,61.83
2016-08-15T04:37:46.288Z,61.81
2016-08-15T04:38:48.120Z,61.84
2016-08-15T04:39:40.252Z,61.86
2016-08-15T04:40:55.657Z,61.83
2016-08-15T04:41:47.017Z,61.80
2016-08-15T04:42:54.772Z,61.80
2016-08-15T04:43:44.443Z,61.84
2016-08-15T04:44:45.100Z,61.81
2016-08-15T04:45:44.244Z,61.79
2016-08-15T04:46:30.595Z,61.79
2016-08-15T04:47:16.299Z,61.80
2016-08-15T04:48:50.428Z,61.83
2016-08-15T04:49:47.016Z,61.84
2016-08-15T04:50:40.545Z,61.81
2016-08-15T04:51:43.521Z,61.81
2016-08-15T04:52:54.795Z,61.81
2016-08-15T04:53:46.460Z,61.80
2016-08-15T04:54:45.795Z,61.81
2016-08-15T04:55:42.867Z,61.81
2016-08-15T04:56:46.553Z,61.83
2016-08-15T04:57:43.888Z,61.84
2016-08-15T04:58:53.441Z,60.79
2016-08-15T04:59:43.027Z,60.62
2016-08-15T05:00:39.197Z,60.53
2016-08-15T05:01:44.795Z,60.54
2016-08-15T05:02:44.097Z,60.39
2016-08-15T05:03:39.111Z,60.38
2016-08-15T05:04:45.715Z,60.34
2016-08-15T05:05:51.473Z,60.67
2016-08-15T05:06:44.197Z,61.31
2016-08-15T05:07:44.366Z,61.36
2016-08-15T05:08:39.166Z,60.67
2016-08-15T05:09:44.527Z,61.49
2016-08-15T05:10:44.128Z,61.63
2016-08-15T05:11:38.580Z,61.69
2016-08-15T05:12:43.895Z,61.70
2016-08-15T05:13:42.262Z,61.74
2016-08-15T05:14:50.226Z,61.75
2016-08-15T05:15:46.113Z,61.74
2016-08-15T05:16:16.784Z,61.77
2016-08-15T05:17:39.358Z,61.76
2016-08-15T05:18:30.947Z,61.78
2016-08-15T05:19:35.663Z,61.78
2016-08-15T05:20:33.307Z,61.78
2016-08-15T05:21:55.659Z,61.77
2016-08-15T05:22:29.220Z,61.77
2016-08-15T05:23:38.162Z,61.77
2016-08-15T05:24:49.828Z,61.76
2016-08-15T05:25:42.272Z,61.79
2016-08-15T05:26:49.862Z,61.78
2016-08-15T05:27:34.894Z,61.78
2016-08-15T05:28:38.119Z,61.79
2016-08-15T05:29:48.781Z,61.76
2016-08-15T05:30:21.461Z,61.76
2016-08-15T05:31:15.262Z,61.76
2016-08-15T05:32:39.872Z,61.76
2016-08-15T05:33:38.832Z,61.75
2016-08-15T05:34:33.721Z,61.76
2016-08-15T05:35:36.886Z,61.75
2016-08-15T05:36:27.580Z,61.75
2016-08-15T05:37:44.935Z,61.58
2016-08-15T05:38:40.631Z,60.67
2016-08-15T05:39:41.037Z,60.52
2016-08-15T05:40:44.222Z,60.41
2016-08-15T05:41:44.957Z,60.66
2016-08-15T05:42:48.347Z,61.29
2016-08-15T05:43:48.747Z,61.47
2016-08-15T05:44:45.040Z,61.56
2016-08-15T05:45:48.887Z,61.63
2016-08-15T05:46:49.643Z,61.64
2016-08-15T05:47:33.860Z,61.66
2016-08-15T05:48:44.300Z,61.67
2016-08-15T05:49:20.736Z,61.66
2016-08-15T05:50:13.760Z,61.67
2016-08-15T05:51:16.745Z,61.68
2016-08-15T05:52:15.579Z,61.69
2016-08-15T05:53:17.660Z,61.70
2016-08-15T05:54:25.575Z,61.71
2016-08-15T05:55:13.787Z,61.71
2016-08-15T05:56:20.742Z,61.70
2016-08-15T05:57:24.299Z,61.69
2016-08-15T05:58:17.131Z,61.68
2016-08-15T05:59:24.990Z,61.68
2016-08-15T06:00:30.669Z,61.67
2016-08-15T06:01:35.184Z,61.66
2016-08-15T06:02:28.218Z,61.67
2016-08-15T06:03:24.141Z,61.65
2016-08-15T06:04:17.222Z,61.65
2016-08-15T06:05:21.760Z,61.65
2016-08-15T06:06:28.985Z,61.65
2016-08-15T06:07:24.983Z,61.64
2016-08-15T06:08:23.093Z,61.63
2016-08-15T06:09:28.131Z,61.65
2016-08-15T06:10:32.746Z,61.63
2016-08-15T06:11:34.090Z,61.62
2016-08-15T06:12:22.498Z,61.61
2016-08-15T06:13:28.805Z,61.61
2016-08-15T06:14:16.266Z,61.61
2016-08-15T06:15:30.632Z,61.62
2016-08-15T06:16:30.059Z,61.61
2016-08-15T06:17:25.405Z,61.60
2016-08-15T06:18:16.878Z,61.61
2016-08-15T06:19:25.019Z,61.59
2016-08-15T06:20:23.425Z,61.60
2016-08-15T06:21:32.575Z,61.59
2016-08-15T06:22:24.917Z,61.60
2016-08-15T06:23:25.605Z,61.58
2016-08-15T06:24:19.722Z,60.58
2016-08-15T06:25:25.844Z,60.74
2016-08-15T06:26:39.350Z,61.28
2016-08-15T06:27:34.691Z,61.43
2016-08-15T06:28:47.986Z,61.50
2016-08-15T06:29:34.550Z,61.54
2016-08-15T06:30:49.988Z,61.55
2016-08-15T06:31:49.075Z,61.57
2016-08-15T06:32:58.347Z,61.59
2016-08-15T06:33:48.937Z,61.59
2016-08-15T06:34:44.124Z,61.60
2016-08-15T06:35:33.122Z,61.60
2016-08-15T06:36:45.154Z,61.58
2016-08-15T06:37:37.055Z,61.60
2016-08-15T06:38:38.514Z,61.60
2016-08-15T06:39:45.825Z,60.61
2016-08-15T06:40:52.502Z,60.39
2016-08-15T06:41:48.668Z,60.29
2016-08-15T06:42:40.057Z,60.22
2016-08-15T06:43:56.115Z,60.19
2016-08-15T06:44:43.897Z,60.16
2016-08-15T06:45:44.838Z,60.15
2016-08-15T06:46:49.952Z,59.97
2016-08-15T06:47:46.239Z,60.36
2016-08-15T06:48:39.322Z,61.09
2016-08-15T06:49:40.487Z,61.30
2016-08-15T06:50:41.084Z,61.40
2016-08-15T06:51:50.163Z,61.46
2016-08-15T06:52:40.458Z,61.50
2016-08-15T06:53:44.252Z,61.52
2016-08-15T06:54:50.593Z,61.54
2016-08-15T06:55:50.711Z,61.54
2016-08-15T06:56:50.670Z,61.38
2016-08-15T06:57:51.057Z,60.55
2016-08-15T06:58:40.697Z,60.34
2016-08-15T06:59:37.056Z,60.24
2016-08-15T07:00:49.883Z,60.19
2016-08-15T07:01:50.356Z,60.14
2016-08-15T07:02:44.616Z,60.42
2016-08-15T07:03:46.216Z,61.10
2016-08-15T07:04:50.095Z,61.29
2016-08-15T07:05:34.914Z,61.37
2016-08-15T07:06:44.428Z,61.43
2016-08-15T07:07:54.608Z,61.45
2016-08-15T07:08:47.652Z,61.48
2016-08-15T07:09:30.060Z,61.48
2016-08-15T07:10:40.104Z,61.50
2016-08-15T07:11:35.117Z,61.50
2016-08-15T07:12:45.040Z,61.52
2016-08-15T07:13:44.050Z,61.52
2016-08-15T07:14:50.414Z,61.52
2016-08-15T07:15:50.094Z,61.52
2016-08-15T07:16:39.296Z,61.52
2016-08-15T07:17:49.391Z,61.58
2016-08-15T07:18:50.273Z,61.51
2016-08-15T07:19:48.056Z,61.53
2016-08-15T07:20:44.493Z,61.52
2016-08-15T07:21:50.263Z,61.51
2016-08-15T07:22:39.781Z,61.50
2016-08-15T07:23:46.384Z,61.50
2016-08-15T07:24:35.420Z,61.48
2016-08-15T07:25:40.358Z,61.49
2016-08-15T07:26:45.867Z,61.48
2016-08-15T07:27:44.849Z,61.46
2016-08-15T07:28:54.760Z,61.46
2016-08-15T07:29:40.313Z,61.46
2016-08-15T07:30:34.531Z,61.49
2016-08-15T07:31:46.022Z,60.45
2016-08-15T07:32:47.205Z,60.27
2016-08-15T07:33:37.880Z,61.08
2016-08-15T07:34:46.487Z,61.24
2016-08-15T07:35:42.710Z,61.32
2016-08-15T07:36:50.931Z,61.36
2016-08-15T07:37:45.146Z,61.38
2016-08-15T07:38:54.582Z,61.20
2016-08-15T07:39:43.248Z,60.41
2016-08-15T07:40:37.309Z,60.19
2016-08-15T07:41:47.324Z,60.10
2016-08-15T07:42:52.577Z,60.06
2016-08-15T07:43:42.808Z,60.01
2016-08-15T07:44:50.371Z,59.97
2016-08-15T07:45:40.764Z,60.95
2016-08-15T07:46:39.342Z,61.14
2016-08-15T07:47:40.103Z,61.23
2016-08-15T07:48:45.808Z,61.29
2016-08-15T07:49:46.659Z,61.33
2016-08-15T07:50:39.166Z,61.34
2016-08-15T07:51:34.798Z,61.35
2016-08-15T07:52:44.646Z,61.36
2016-08-15T07:53:40.275Z,61.36
2016-08-15T07:54:34.528Z,61.37
2016-08-15T07:55:44.813Z,61.37
2016-08-15T07:56:40.011Z,61.37
2016-08-15T07:57:44.534Z,61.36
2016-08-15T07:58:56.469Z,61.37
2016-08-15T07:59:39.046Z,61.37
2016-08-15T08:00:39.383Z,61.37
2016-08-15T08:01:53.558Z,61.37
2016-08-15T08:02:38.419Z,61.38
2016-08-15T08:03:35.031Z,61.37
2016-08-15T08:04:53.704Z,61.39
2016-08-15T08:05:48.077Z,61.38
2016-08-15T08:06:42.126Z,61.39
2016-08-15T08:07:44.431Z,61.39
2016-08-15T08:08:50.036Z,61.37
2016-08-15T08:09:43.190Z,61.37
2016-08-15T08:10:44.513Z,61.36
2016-08-15T08:11:23.022Z,61.36
2016-08-15T08:12:38.189Z,61.36
2016-08-15T08:13:48.424Z,61.36
2016-08-15T08:14:42.905Z,61.36
2016-08-15T08:15:51.181Z,61.36
2016-08-15T08:16:44.603Z,61.36
2016-08-15T08:17:43.903Z,61.36
2016-08-15T08:18:40.470Z,61.36
2016-08-15T08:19:51.169Z,61.35
2016-08-15T08:20:39.994Z,61.36
2016-08-15T08:21:38.694Z,61.36
2016-08-15T08:22:38.515Z,61.36
2016-08-15T08:23:32.048Z,61.15
2016-08-15T08:24:45.398Z,60.71
2016-08-15T08:25:39.937Z,61.17
2016-08-15T08:26:39.688Z,61.26
2016-08-15T08:27:47.596Z,61.30
2016-08-15T08:28:50.928Z,61.33
2016-08-15T08:29:37.177Z,61.35
2016-08-15T08:30:52.620Z,61.35
2016-08-15T08:31:43.398Z,61.35
2016-08-15T08:32:43.580Z,61.37
2016-08-15T08:33:39.344Z,61.36
2016-08-15T08:34:34.486Z,61.36
2016-08-15T08:35:44.427Z,61.35
2016-08-15T08:36:43.649Z,61.36
2016-08-15T08:37:31.549Z,61.36
2016-08-15T08:38:23.391Z,61.36
2016-08-15T08:39:53.920Z,61.36
2016-08-15T08:40:44.464Z,61.35
2016-08-15T08:41:43.362Z,61.34
2016-08-15T08:42:51.754Z,61.34
2016-08-15T08:43:43.616Z,61.35
2016-08-15T08:44:40.913Z,61.35
2016-08-15T08:45:38.711Z,61.34
2016-08-15T08:46:46.127Z,61.17
2016-08-15T08:47:38.903Z,60.70
2016-08-15T08:48:39.023Z,61.16
2016-08-15T08:49:33.967Z,61.24
2016-08-15T08:50:35.066Z,61.29
2016-08-15T08:51:19.877Z,61.29
2016-08-15T08:52:43.821Z,61.31
2016-08-15T08:53:41.420Z,61.30
2016-08-15T08:54:58.518Z,61.32
2016-08-15T08:55:54.664Z,61.31
2016-08-15T08:56:50.323Z,61.34
2016-08-15T08:57:43.448Z,61.32
2016-08-15T08:58:43.981Z,61.30
2016-08-15T08:59:45.174Z,61.43
2016-08-15T09:00:41.137Z,61.31
2016-08-15T09:01:44.497Z,61.31
2016-08-15T09:02:55.568Z,61.30
2016-08-15T09:03:46.023Z,61.32
2016-08-15T09:04:41.285Z,61.30
2016-08-15T09:05:44.947Z,61.31
2016-08-15T09:06:44.652Z,61.30
2016-08-15T09:07:45.080Z,61.33
2016-08-15T09:08:51.884Z,61.32
2016-08-15T09:09:44.762Z,61.33
2016-08-15T09:10:52.400Z,60.32
2016-08-15T09:11:30.832Z,60.41
2016-08-15T09:12:50.429Z,60.99
2016-08-15T09:13:41.576Z,61.13
2016-08-15T09:14:50.194Z,61.20
2016-08-15T09:15:44.224Z,61.23
2016-08-15T09:16:44.454Z,61.25
2016-08-15T09:17:40.338Z,61.27
2016-08-15T09:18:37.588Z,61.28
2016-08-15T09:19:40.972Z,61.28
2016-08-15T09:20:43.819Z,61.27
2016-08-15T09:21:41.776Z,61.25
2016-08-15T09:22:45.569Z,61.26
2016-08-15T09:23:44.492Z,61.26
2016-08-15T09:24:41.793Z,61.27
2016-08-15T09:25:39.286Z,61.25
2016-08-15T09:26:42.283Z,61.25
2016-08-15T09:27:39.233Z,61.25
2016-08-15T09:28:51.476Z,61.26
2016-08-15T09:29:49.715Z,61.28
2016-08-15T09:30:57.293Z,61.25
2016-08-15T09:31:40.259Z,61.26
2016-08-15T09:32:45.556Z,61.26
2016-08-15T09:33:52.234Z,61.25
2016-08-15T09:34:38.889Z,61.25
2016-08-15T09:35:44.521Z,61.25
2016-08-15T09:36:45.130Z,61.25
2016-08-15T09:37:32.036Z,61.25
2016-08-15T09:38:24.335Z,61.25
2016-08-15T09:39:39.231Z,61.25
2016-08-15T09:40:44.399Z,61.25
2016-08-15T09:41:45.340Z,61.25
2016-08-15T09:42:44.613Z,61.24
2016-08-15T09:43:42.813Z,61.25
2016-08-15T09:44:44.150Z,61.25
2016-08-15T09:45:44.571Z,61.25
2016-08-15T09:46:34.320Z,61.25
2016-08-15T09:47:40.294Z,61.24
2016-08-15T09:48:54.990Z,61.24
2016-08-15T09:49:33.582Z,61.25
2016-08-15T09:50:46.959Z,61.24
2016-08-15T09:51:38.744Z,61.23
2016-08-15T09:52:47.779Z,61.24
2016-08-15T09:53:33.958Z,61.26
2016-08-15T09:54:44.544Z,61.24
2016-08-15T09:55:41.998Z,61.25
2016-08-15T09:56:46.094Z,61.23
2016-08-15T09:57:46.788Z,61.22
2016-08-15T09:58:54.836Z,61.23
2016-08-15T09:59:50.547Z,61.23
2016-08-15T10:00:32.946Z,61.21
2016-08-15T10:01:37.851Z,61.23
2016-08-15T10:02:34.188Z,61.22
2016-08-15T10:03:42.278Z,61.24
2016-08-15T10:04:29.326Z,61.25
2016-08-15T10:05:42.651Z,61.23
2016-08-15T10:06:34.758Z,61.22
2016-08-15T10:07:54.878Z,61.24
2016-08-15T10:08:47.438Z,61.22
2016-08-15T10:09:15.151Z,61.22
2016-08-15T10:10:42.751Z,61.22
2016-08-15T10:11:39.394Z,61.25
2016-08-15T10:12:40.409Z,61.24
2016-08-15T10:13:54.350Z,61.24
2016-08-15T10:14:50.172Z,61.26
2016-08-15T10:15:31.443Z,61.25
2016-08-15T10:16:34.596Z,61.26
2016-08-15T10:17:39.239Z,61.27
2016-08-15T10:19:48.123Z,61.28
2016-08-15T10:20:43.476Z,61.29
2016-08-15T10:21:43.640Z,60.31
2016-08-15T10:22:50.595Z,60.07
2016-08-15T10:24:00.845Z,59.96
2016-08-15T10:24:33.645Z,59.90
2016-08-15T10:25:48.851Z,59.86
2016-08-15T10:26:38.938Z,59.89
2016-08-15T10:27:49.600Z,59.82
2016-08-15T10:28:32.979Z,59.85
2016-08-15T10:29:28.923Z,59.82
2016-08-15T10:30:39.673Z,59.90
2016-08-15T10:31:38.240Z,60.78
2016-08-15T10:32:50.461Z,60.99
2016-08-15T10:33:53.813Z,61.10
2016-08-15T10:34:43.024Z,61.14
2016-08-15T10:35:54.518Z,61.18
2016-08-15T10:36:55.656Z,61.21
2016-08-15T10:37:46.932Z,61.05
2016-08-15T10:38:32.053Z,60.33
2016-08-15T10:39:41.045Z,61.00
2016-08-15T10:40:45.243Z,61.14
2016-08-15T10:41:39.192Z,61.19
2016-08-15T10:42:45.873Z,61.22
2016-08-15T10:43:37.815Z,61.23
2016-08-15T10:44:47.895Z,61.26
2016-08-15T10:45:34.415Z,61.25
2016-08-15T10:46:44.251Z,61.26
2016-08-15T10:47:34.785Z,61.26
2016-08-15T10:48:32.305Z,61.27
2016-08-15T10:49:32.051Z,61.26
2016-08-15T10:50:49.161Z,61.27
2016-08-15T10:51:40.696Z,61.28
2016-08-15T10:52:48.223Z,61.27
2016-08-15T10:53:46.071Z,61.27
2016-08-15T10:54:49.952Z,61.26
2016-08-15T10:55:49.049Z,61.26
2016-08-15T10:56:50.567Z,61.25
2016-08-15T10:57:40.840Z,61.25
2016-08-15T10:58:37.583Z,61.25
2016-08-15T10:59:44.461Z,61.24
2016-08-15T11:00:43.916Z,61.24
2016-08-15T11:01:38.702Z,61.21
2016-08-15T11:02:38.247Z,61.22
2016-08-15T11:03:44.359Z,61.24
2016-08-15T11:04:50.068Z,61.25
2016-08-15T11:05:39.499Z,61.25
2016-08-15T11:06:51.288Z,61.25
2016-08-15T11:07:34.089Z,61.23
2016-08-15T11:08:44.999Z,61.20
2016-08-15T11:09:43.658Z,61.21
2016-08-15T11:10:41.253Z,61.21
2016-08-15T11:11:34.388Z,60.58
2016-08-15T11:12:55.137Z,61.04
2016-08-15T11:13:42.176Z,61.14
2016-08-15T11:14:40.729Z,61.18
2016-08-15T11:15:22.964Z,61.21
2016-08-15T11:16:40.077Z,61.22
2016-08-15T11:17:40.982Z,61.20
2016-08-15T11:18:46.098Z,61.21
2016-08-15T11:19:38.536Z,61.11
2016-08-15T11:20:46.411Z,61.19
2016-08-15T11:21:48.009Z,61.20
2016-08-15T11:22:38.671Z,61.19
2016-08-15T11:23:45.002Z,61.18
2016-08-15T11:24:44.390Z,61.18
2016-08-15T11:25:40.305Z,61.17
2016-08-15T11:26:50.422Z,61.18
2016-08-15T11:27:44.688Z,61.17
2016-08-15T11:28:52.165Z,61.19
2016-08-15T11:29:54.822Z,61.18
2016-08-15T11:31:02.997Z,61.19
2016-08-15T11:31:50.895Z,61.17
2016-08-15T11:32:44.331Z,61.17
2016-08-15T11:33:44.117Z,61.18
2016-08-15T11:34:48.855Z,61.18
2016-08-15T11:35:53.925Z,61.16
2016-08-15T11:36:47.234Z,61.15
2016-08-15T11:37:47.763Z,61.15
2016-08-15T11:38:58.981Z,61.15
2016-08-15T11:39:16.928Z,61.16
2016-08-15T11:40:48.504Z,61.14
2016-08-15T11:41:42.775Z,61.14
2016-08-15T11:42:39.147Z,60.91
2016-08-15T11:43:42.197Z,61.11
2016-08-15T11:44:48.087Z,61.12
2016-08-15T11:45:52.093Z,61.11
2016-08-15T11:46:51.459Z,61.09
2016-08-15T11:47:52.851Z,61.08
2016-08-15T11:48:49.748Z,61.13
2016-08-15T11:49:53.417Z,61.13
2016-08-15T11:50:45.566Z,61.16
2016-08-15T11:51:46.207Z,61.15
2016-08-15T11:52:45.388Z,61.14
2016-08-15T11:53:49.029Z,61.14
2016-08-15T11:54:54.118Z,61.14
2016-08-15T11:55:33.737Z,60.26
2016-08-15T11:56:47.805Z,59.92
2016-08-15T11:57:41.908Z,59.78
2016-08-15T11:58:55.575Z,59.76
2016-08-15T11:59:44.421Z,59.70
2016-08-15T12:00:49.659Z,59.67
2016-08-15T12:02:01.559Z,59.68
2016-08-15T12:02:54.197Z,59.69
2016-08-15T12:03:59.353Z,59.80
2016-08-15T12:04:44.266Z,60.68
2016-08-15T12:05:34.256Z,60.87
2016-08-15T12:06:46.076Z,60.96
2016-08-15T12:07:37.483Z,61.04
2016-08-15T12:08:42.861Z,61.05
2016-08-15T12:09:52.982Z,61.07
2016-08-15T12:10:48.187Z,61.08
2016-08-15T12:11:45.689Z,61.07
2016-08-15T12:12:40.288Z,61.08
2016-08-15T12:13:42.863Z,61.07
2016-08-15T12:14:43.764Z,61.08
2016-08-15T12:15:44.413Z,61.07
2016-08-15T12:16:53.937Z,61.05
2016-08-15T12:17:46.099Z,61.06
2016-08-15T12:18:39.229Z,61.04
2016-08-15T12:19:31.860Z,61.03
2016-08-15T12:20:44.922Z,61.05
2016-08-15T12:21:48.225Z,61.05
2016-08-15T12:22:45.795Z,61.06
2016-08-15T12:23:39.661Z,61.04
2016-08-15T12:24:42.894Z,61.02
2016-08-15T12:25:38.730Z,61.03
2016-08-15T12:26:37.009Z,61.06
2016-08-15T12:27:47.131Z,61.05
2016-08-15T12:28:51.061Z,61.02
2016-08-15T12:29:50.339Z,61.05
2016-08-15T12:30:45.400Z,61.06
2016-08-15T12:31:54.451Z,61.06
2016-08-15T12:32:44.720Z,61.02
2016-08-15T12:33:46.460Z,61.09
2016-08-15T12:34:43.241Z,61.06
2016-08-15T12:35:38.225Z,61.05
2016-08-15T12:36:25.210Z,61.07
2016-08-15T12:37:53.282Z,61.05
2016-08-15T12:38:34.154Z,61.02
2016-08-15T12:39:28.010Z,61.05
2016-08-15T12:40:16.613Z,61.04
2016-08-15T12:41:43.807Z,61.06
2016-08-15T12:42:43.125Z,60.44
2016-08-15T12:43:40.468Z,60.92
2016-08-15T12:44:34.590Z,61.00
2016-08-15T12:45:46.261Z,61.07
2016-08-15T12:46:46.052Z,61.11
2016-08-15T12:47:46.933Z,61.13
2016-08-15T12:48:50.089Z,61.15
2016-08-15T12:49:17.989Z,61.15
2016-08-15T12:50:45.076Z,61.20
2016-08-15T12:51:45.310Z,61.18
2016-08-15T12:52:40.994Z,61.19
2016-08-15T12:53:50.332Z,60.85